sensor_id;sensor_type;location;lat;lon;timestamp;P1;durP1;ratioP1;P2;durP2;ratioP2
42886;SDS011;29032;56.028;92.904;2023-02-15T00:00:05;25.83;;;10.63;;
42886;SDS011;29032;56.028;92.904;2023-02-15T00:05:09;38.93;;;13.03;;
42886;SDS011;29032;56.028;92.904;2023-02-15T00:10:11;39.50;;;13.30;;
42886;SDS011;29032;56.028;92.904;2023-02-15T00:15:15;46.93;;;12.97;;
42886;SDS011;29032;56.028;92.904;2023-02-15T00:20:17;47.00;;;15.17;;
42886;SDS011;29032;56.028;92.904;2023-02-15T00:25:19;43.13;;;14.93;;
42886;SDS011;29032;56.028;92.904;2023-02-15T00:30:23;38.87;;;15.40;;
42886;SDS011;29032;56.028;92.904;2023-02-15T00:35:25;43.37;;;15.07;;
42886;SDS011;29032;56.028;92.904;2023-02-15T00:40:27;37.80;;;14.83;;
42886;SDS011;29032;56.028;92.904;2023-02-15T00:45:31;39.37;;;16.00;;
42886;SDS011;29032;56.028;92.904;2023-02-15T00:50:33;37.00;;;14.47;;
42886;SDS011;29032;56.028;92.904;2023-02-15T00:55:35;39.80;;;15.57;;
42886;SDS011;29032;56.028;92.904;2023-02-15T01:00:39;34.37;;;14.03;;
42886;SDS011;29032;56.028;92.904;2023-02-15T01:05:43;43.00;;;15.40;;
42886;SDS011;29032;56.028;92.904;2023-02-15T01:10:45;40.03;;;14.83;;
42886;SDS011;29032;56.028;92.904;2023-02-15T01:15:53;37.73;;;15.40;;
42886;SDS011;29032;56.028;92.904;2023-02-15T01:20:55;45.10;;;16.63;;
42886;SDS011;29032;56.028;92.904;2023-02-15T01:26:01;53.43;;;17.00;;
42886;SDS011;29032;56.028;92.904;2023-02-15T01:31:08;54.77;;;18.17;;
42886;SDS011;29032;56.028;92.904;2023-02-15T01:36:12;63.50;;;19.47;;
42886;SDS011;29032;56.028;92.904;2023-02-15T01:41:14;47.90;;;17.70;;
42886;SDS011;29032;56.028;92.904;2023-02-15T01:46:19;46.27;;;17.67;;
42886;SDS011;29032;56.028;92.904;2023-02-15T01:51:24;48.20;;;15.23;;
42886;SDS011;29032;56.028;92.904;2023-02-15T01:56:33;42.47;;;15.60;;
42886;SDS011;29032;56.028;92.904;2023-02-15T02:01:38;51.60;;;16.97;;
42886;SDS011;29032;56.028;92.904;2023-02-15T02:06:41;47.40;;;18.67;;
42886;SDS011;29032;56.028;92.904;2023-02-15T02:11:44;49.63;;;17.63;;
42886;SDS011;29032;56.028;92.904;2023-02-15T02:16:51;55.80;;;17.77;;
42886;SDS011;29032;56.028;92.904;2023-02-15T02:22:23;50.00;;;18.90;;
42886;SDS011;29032;56.028;92.904;2023-02-15T02:27:47;60.10;;;20.27;;
42886;SDS011;29032;56.028;92.904;2023-02-15T02:38:32;50.07;;;17.70;;
42886;SDS011;29032;56.028;92.904;2023-02-15T02:43:45;43.77;;;16.77;;
42886;SDS011;29032;56.028;92.904;2023-02-15T02:48:53;49.73;;;17.83;;
42886;SDS011;29032;56.028;92.904;2023-02-15T02:53:57;48.63;;;18.00;;
42886;SDS011;29032;56.028;92.904;2023-02-15T02:59:02;40.63;;;15.80;;
42886;SDS011;29032;56.028;92.904;2023-02-15T03:04:12;49.90;;;17.77;;
42886;SDS011;29032;56.028;92.904;2023-02-15T03:09:18;45.63;;;16.37;;
42886;SDS011;29032;56.028;92.904;2023-02-15T03:14:25;52.10;;;17.20;;
42886;SDS011;29032;56.028;92.904;2023-02-15T03:19:30;51.63;;;18.50;;
42886;SDS011;29032;56.028;92.904;2023-02-15T03:24:36;54.67;;;19.17;;
42886;SDS011;29032;56.028;92.904;2023-02-15T03:29:43;53.63;;;19.27;;
42886;SDS011;29032;56.028;92.904;2023-02-15T03:34:49;45.60;;;18.73;;
42886;SDS011;29032;56.028;92.904;2023-02-15T03:39:53;53.47;;;19.00;;
42886;SDS011;29032;56.028;92.904;2023-02-15T03:44:58;48.33;;;16.53;;
42886;SDS011;29032;56.028;92.904;2023-02-15T03:50:05;43.33;;;16.67;;
42886;SDS011;29032;56.028;92.904;2023-02-15T03:55:11;48.20;;;17.27;;
42886;SDS011;29032;56.028;92.904;2023-02-15T04:00:15;56.37;;;18.73;;
42886;SDS011;29032;56.028;92.904;2023-02-15T04:05:21;52.20;;;18.95;;
42886;SDS011;29032;56.028;92.904;2023-02-15T04:10:24;47.83;;;18.33;;
42886;SDS011;29032;56.028;92.904;2023-02-15T04:15:26;52.27;;;19.77;;
42886;SDS011;29032;56.028;92.904;2023-02-15T04:20:29;52.37;;;19.13;;
42886;SDS011;29032;56.028;92.904;2023-02-15T04:25:31;63.43;;;23.23;;
42886;SDS011;29032;56.028;92.904;2023-02-15T04:30:34;65.73;;;23.47;;
42886;SDS011;29032;56.028;92.904;2023-02-15T04:35:37;64.57;;;23.20;;
42886;SDS011;29032;56.028;92.904;2023-02-15T04:40:39;62.87;;;25.13;;
42886;SDS011;29032;56.028;92.904;2023-02-15T04:45:42;63.90;;;24.40;;
42886;SDS011;29032;56.028;92.904;2023-02-15T04:50:50;62.57;;;22.90;;
42886;SDS011;29032;56.028;92.904;2023-02-15T04:55:52;59.63;;;23.17;;
42886;SDS011;29032;56.028;92.904;2023-02-15T05:00:55;51.07;;;21.73;;
42886;SDS011;29032;56.028;92.904;2023-02-15T05:05:59;51.13;;;22.23;;
42886;SDS011;29032;56.028;92.904;2023-02-15T05:11:01;60.33;;;23.87;;
42886;SDS011;29032;56.028;92.904;2023-02-15T05:16:03;49.33;;;21.23;;
42886;SDS011;29032;56.028;92.904;2023-02-15T05:21:07;53.30;;;20.80;;
42886;SDS011;29032;56.028;92.904;2023-02-15T05:26:16;47.77;;;19.27;;
42886;SDS011;29032;56.028;92.904;2023-02-15T05:31:19;55.60;;;23.60;;
42886;SDS011;29032;56.028;92.904;2023-02-15T05:36:23;48.47;;;20.43;;
42886;SDS011;29032;56.028;92.904;2023-02-15T05:41:25;42.30;;;17.67;;
42886;SDS011;29032;56.028;92.904;2023-02-15T05:46:27;41.87;;;17.93;;
42886;SDS011;29032;56.028;92.904;2023-02-15T05:51:31;44.83;;;16.40;;
42886;SDS011;29032;56.028;92.904;2023-02-15T05:56:33;34.10;;;14.83;;
42886;SDS011;29032;56.028;92.904;2023-02-15T06:01:35;39.80;;;15.80;;
42886;SDS011;29032;56.028;92.904;2023-02-15T06:06:38;36.23;;;15.27;;
42886;SDS011;29032;56.028;92.904;2023-02-15T06:11:40;38.57;;;15.70;;
42886;SDS011;29032;56.028;92.904;2023-02-15T06:16:43;36.67;;;14.93;;
42886;SDS011;29032;56.028;92.904;2023-02-15T06:21:47;32.73;;;13.77;;
42886;SDS011;29032;56.028;92.904;2023-02-15T06:26:49;34.33;;;13.73;;
42886;SDS011;29032;56.028;92.904;2023-02-15T06:31:52;37.40;;;14.67;;
42886;SDS011;29032;56.028;92.904;2023-02-15T06:36:55;30.23;;;13.60;;
42886;SDS011;29032;56.028;92.904;2023-02-15T06:41:57;32.90;;;13.57;;
42886;SDS011;29032;56.028;92.904;2023-02-15T06:46:59;26.70;;;12.70;;
42886;SDS011;29032;56.028;92.904;2023-02-15T06:52:03;34.43;;;14.23;;
42886;SDS011;29032;56.028;92.904;2023-02-15T06:57:07;35.77;;;16.70;;
42886;SDS011;29032;56.028;92.904;2023-02-15T07:02:10;40.40;;;17.10;;
42886;SDS011;29032;56.028;92.904;2023-02-15T07:07:14;34.67;;;17.10;;
42886;SDS011;29032;56.028;92.904;2023-02-15T07:12:16;39.30;;;16.43;;
42886;SDS011;29032;56.028;92.904;2023-02-15T07:17:18;33.23;;;15.77;;
42886;SDS011;29032;56.028;92.904;2023-02-15T07:22:22;32.97;;;15.87;;
42886;SDS011;29032;56.028;92.904;2023-02-15T07:27:24;38.17;;;15.23;;
42886;SDS011;29032;56.028;92.904;2023-02-15T07:32:27;40.57;;;16.83;;
42886;SDS011;29032;56.028;92.904;2023-02-15T07:37:31;48.00;;;20.70;;
42886;SDS011;29032;56.028;92.904;2023-02-15T07:42:33;53.60;;;21.73;;
42886;SDS011;29032;56.028;92.904;2023-02-15T07:47:35;42.43;;;20.93;;
42886;SDS011;29032;56.028;92.904;2023-02-15T07:52:39;51.50;;;23.00;;
42886;SDS011;29032;56.028;92.904;2023-02-15T07:57:44;50.30;;;23.60;;
42886;SDS011;29032;56.028;92.904;2023-02-15T08:02:47;46.80;;;22.73;;
42886;SDS011;29032;56.028;92.904;2023-02-15T08:07:51;47.60;;;21.30;;
42886;SDS011;29032;56.028;92.904;2023-02-15T08:12:53;43.23;;;21.00;;
42886;SDS011;29032;56.028;92.904;2023-02-15T08:17:56;49.50;;;22.60;;
42886;SDS011;29032;56.028;92.904;2023-02-15T08:23:00;47.43;;;21.77;;
42886;SDS011;29032;56.028;92.904;2023-02-15T08:28:02;42.73;;;19.87;;
42886;SDS011;29032;56.028;92.904;2023-02-15T08:33:05;50.30;;;21.67;;
42886;SDS011;29032;56.028;92.904;2023-02-15T08:38:09;44.43;;;20.73;;
42886;SDS011;29032;56.028;92.904;2023-02-15T08:43:11;49.80;;;21.77;;
42886;SDS011;29032;56.028;92.904;2023-02-15T08:48:13;48.07;;;20.43;;
42886;SDS011;29032;56.028;92.904;2023-02-15T08:53:17;47.93;;;22.63;;
42886;SDS011;29032;56.028;92.904;2023-02-15T08:58:19;53.33;;;23.60;;
42886;SDS011;29032;56.028;92.904;2023-02-15T09:03:21;47.90;;;21.43;;
42886;SDS011;29032;56.028;92.904;2023-02-15T09:08:29;46.10;;;21.23;;
42886;SDS011;29032;56.028;92.904;2023-02-15T09:13:32;42.60;;;21.87;;
42886;SDS011;29032;56.028;92.904;2023-02-15T09:18:35;52.67;;;23.20;;
42886;SDS011;29032;56.028;92.904;2023-02-15T09:23:40;52.77;;;23.90;;
42886;SDS011;29032;56.028;92.904;2023-02-15T09:28:42;62.40;;;27.43;;
42886;SDS011;29032;56.028;92.904;2023-02-15T09:33:48;60.00;;;25.17;;
42886;SDS011;29032;56.028;92.904;2023-02-15T09:38:53;53.10;;;25.93;;
42886;SDS011;29032;56.028;92.904;2023-02-15T09:43:59;54.17;;;22.93;;
42886;SDS011;29032;56.028;92.904;2023-02-15T09:49:11;52.67;;;23.73;;
42886;SDS011;29032;56.028;92.904;2023-02-15T09:54:32;50.20;;;22.07;;
42886;SDS011;29032;56.028;92.904;2023-02-15T09:59:45;50.57;;;22.77;;
42886;SDS011;29032;56.028;92.904;2023-02-15T10:05:00;53.77;;;21.60;;
42886;SDS011;29032;56.028;92.904;2023-02-15T10:10:21;46.37;;;21.67;;
42886;SDS011;29032;56.028;92.904;2023-02-15T10:15:29;47.63;;;23.33;;
42886;SDS011;29032;56.028;92.904;2023-02-15T10:20:41;45.30;;;20.80;;
42886;SDS011;29032;56.028;92.904;2023-02-15T10:25:55;46.63;;;21.07;;
42886;SDS011;29032;56.028;92.904;2023-02-15T10:31:07;40.80;;;19.07;;
42886;SDS011;29032;56.028;92.904;2023-02-15T10:36:26;42.03;;;19.63;;
42886;SDS011;29032;56.028;92.904;2023-02-15T10:41:41;43.37;;;19.17;;
42886;SDS011;29032;56.028;92.904;2023-02-15T10:47:00;37.63;;;18.47;;
42886;SDS011;29032;56.028;92.904;2023-02-15T10:52:22;43.13;;;18.10;;
42886;SDS011;29032;56.028;92.904;2023-02-15T10:57:36;40.73;;;18.43;;
42886;SDS011;29032;56.028;92.904;2023-02-15T11:02:51;46.30;;;18.67;;
42886;SDS011;29032;56.028;92.904;2023-02-15T11:08:14;46.60;;;20.00;;
42886;SDS011;29032;56.028;92.904;2023-02-15T11:13:25;48.73;;;19.60;;
42886;SDS011;29032;56.028;92.904;2023-02-15T11:18:34;45.33;;;18.47;;
42886;SDS011;29032;56.028;92.904;2023-02-15T11:28:45;42.67;;;17.20;;
42886;SDS011;29032;56.028;92.904;2023-02-15T11:33:51;40.90;;;16.70;;
42886;SDS011;29032;56.028;92.904;2023-02-15T11:38:58;36.60;;;15.47;;
42886;SDS011;29032;56.028;92.904;2023-02-15T11:44:08;41.37;;;16.37;;
42886;SDS011;29032;56.028;92.904;2023-02-15T11:49:20;39.03;;;15.87;;
42886;SDS011;29032;56.028;92.904;2023-02-15T11:54:26;39.40;;;16.40;;
42886;SDS011;29032;56.028;92.904;2023-02-15T11:59:32;41.43;;;18.33;;
42886;SDS011;29032;56.028;92.904;2023-02-15T12:04:39;47.63;;;20.90;;
42886;SDS011;29032;56.028;92.904;2023-02-15T12:09:47;52.73;;;20.43;;
42886;SDS011;29032;56.028;92.904;2023-02-15T12:14:56;50.80;;;20.57;;
42886;SDS011;29032;56.028;92.904;2023-02-15T12:19:59;53.40;;;23.60;;
42886;SDS011;29032;56.028;92.904;2023-02-15T12:25:04;66.33;;;25.23;;
42886;SDS011;29032;56.028;92.904;2023-02-15T12:30:25;66.20;;;27.03;;
42886;SDS011;29032;56.028;92.904;2023-02-15T12:35:32;64.43;;;27.20;;
42886;SDS011;29032;56.028;92.904;2023-02-15T12:40:45;57.87;;;24.00;;
42886;SDS011;29032;56.028;92.904;2023-02-15T12:46:20;53.50;;;23.13;;
42886;SDS011;29032;56.028;92.904;2023-02-15T12:51:23;63.13;;;22.77;;
42886;SDS011;29032;56.028;92.904;2023-02-15T12:56:26;51.33;;;23.13;;
42886;SDS011;29032;56.028;92.904;2023-02-15T13:01:29;61.87;;;22.77;;
42886;SDS011;29032;56.028;92.904;2023-02-15T13:06:34;62.67;;;23.23;;
42886;SDS011;29032;56.028;92.904;2023-02-15T13:11:37;54.97;;;20.03;;
42886;SDS011;29032;56.028;92.904;2023-02-15T13:16:45;56.17;;;22.70;;
42886;SDS011;29032;56.028;92.904;2023-02-15T13:21:50;50.53;;;20.15;;
42886;SDS011;29032;56.028;92.904;2023-02-15T13:26:54;53.00;;;20.53;;
42886;SDS011;29032;56.028;92.904;2023-02-15T13:32:02;44.67;;;20.50;;
42886;SDS011;29032;56.028;92.904;2023-02-15T13:37:11;49.80;;;19.77;;
42886;SDS011;29032;56.028;92.904;2023-02-15T13:42:19;45.23;;;18.20;;
42886;SDS011;29032;56.028;92.904;2023-02-15T13:47:27;46.43;;;17.57;;
42886;SDS011;29032;56.028;92.904;2023-02-15T13:52:34;58.13;;;22.50;;
42886;SDS011;29032;56.028;92.904;2023-02-15T13:57:57;167.33;;;58.70;;
42886;SDS011;29032;56.028;92.904;2023-02-15T14:03:34;344.50;;;119.37;;
42886;SDS011;29032;56.028;92.904;2023-02-15T14:09:03;379.50;;;136.03;;
42886;SDS011;29032;56.028;92.904;2023-02-15T14:14:23;441.23;;;163.30;;
42886;SDS011;29032;56.028;92.904;2023-02-15T14:19:43;426.57;;;159.33;;
42886;SDS011;29032;56.028;92.904;2023-02-15T14:24:52;428.40;;;160.33;;
42886;SDS011;29032;56.028;92.904;2023-02-15T14:30:18;420.80;;;159.70;;
42886;SDS011;29032;56.028;92.904;2023-02-15T14:35:26;369.17;;;137.33;;
42886;SDS011;29032;56.028;92.904;2023-02-15T14:40:32;310.73;;;117.23;;
42886;SDS011;29032;56.028;92.904;2023-02-15T14:45:40;262.20;;;96.67;;
42886;SDS011;29032;56.028;92.904;2023-02-15T14:50:49;232.03;;;88.23;;
42886;SDS011;29032;56.028;92.904;2023-02-15T15:01:24;140.43;;;52.40;;
42886;SDS011;29032;56.028;92.904;2023-02-15T15:06:30;116.87;;;43.93;;
42886;SDS011;29032;56.028;92.904;2023-02-15T15:11:38;108.20;;;41.30;;
42886;SDS011;29032;56.028;92.904;2023-02-15T15:16:46;99.30;;;38.20;;
42886;SDS011;29032;56.028;92.904;2023-02-15T15:22:02;96.60;;;33.47;;
42886;SDS011;29032;56.028;92.904;2023-02-15T15:32:56;96.73;;;34.87;;
42886;SDS011;29032;56.028;92.904;2023-02-15T15:43:48;75.47;;;29.10;;
42886;SDS011;29032;56.028;92.904;2023-02-15T15:49:14;69.53;;;27.80;;
42886;SDS011;29032;56.028;92.904;2023-02-15T15:54:21;83.27;;;31.93;;
42886;SDS011;29032;56.028;92.904;2023-02-15T15:59:25;86.03;;;31.17;;
42886;SDS011;29032;56.028;92.904;2023-02-15T16:04:28;81.13;;;29.50;;
42886;SDS011;29032;56.028;92.904;2023-02-15T16:09:40;87.93;;;30.48;;
42886;SDS011;29032;56.028;92.904;2023-02-15T16:14:42;82.07;;;30.20;;
42886;SDS011;29032;56.028;92.904;2023-02-15T16:19:45;112.20;;;37.27;;
42886;SDS011;29032;56.028;92.904;2023-02-15T16:25:00;114.47;;;38.47;;
42886;SDS011;29032;56.028;92.904;2023-02-15T16:30:21;99.43;;;35.97;;
42886;SDS011;29032;56.028;92.904;2023-02-15T16:35:28;95.97;;;34.93;;
42886;SDS011;29032;56.028;92.904;2023-02-15T16:40:39;99.00;;;33.50;;
42886;SDS011;29032;56.028;92.904;2023-02-15T16:45:45;110.43;;;35.63;;
42886;SDS011;29032;56.028;92.904;2023-02-15T16:50:49;153.03;;;50.30;;
42886;SDS011;29032;56.028;92.904;2023-02-15T16:55:56;190.40;;;69.93;;
42886;SDS011;29032;56.028;92.904;2023-02-15T17:01:00;182.80;;;68.57;;
42886;SDS011;29032;56.028;92.904;2023-02-15T17:06:16;141.63;;;51.30;;
42886;SDS011;29032;56.028;92.904;2023-02-15T17:11:32;146.63;;;47.33;;
42886;SDS011;29032;56.028;92.904;2023-02-15T17:16:36;135.90;;;44.00;;
42886;SDS011;29032;56.028;92.904;2023-02-15T17:21:46;91.87;;;33.30;;
42886;SDS011;29032;56.028;92.904;2023-02-15T17:26:53;96.32;;;32.28;;
42886;SDS011;29032;56.028;92.904;2023-02-15T17:31:57;90.77;;;30.83;;
42886;SDS011;29032;56.028;92.904;2023-02-15T17:36:59;149.43;;;50.53;;
42886;SDS011;29032;56.028;92.904;2023-02-15T17:42:03;181.13;;;61.33;;
42886;SDS011;29032;56.028;92.904;2023-02-15T17:47:05;176.03;;;61.53;;
42886;SDS011;29032;56.028;92.904;2023-02-15T17:52:09;172.23;;;59.30;;
42886;SDS011;29032;56.028;92.904;2023-02-15T17:57:15;176.53;;;59.53;;
42886;SDS011;29032;56.028;92.904;2023-02-15T18:02:17;132.57;;;46.80;;
42886;SDS011;29032;56.028;92.904;2023-02-15T18:07:19;147.23;;;49.03;;
42886;SDS011;29032;56.028;92.904;2023-02-15T18:12:24;170.90;;;53.67;;
42886;SDS011;29032;56.028;92.904;2023-02-15T18:17:27;135.67;;;44.00;;
42886;SDS011;29032;56.028;92.904;2023-02-15T18:22:33;144.48;;;47.72;;
42886;SDS011;29032;56.028;92.904;2023-02-15T18:27:37;158.07;;;51.50;;
42886;SDS011;29032;56.028;92.904;2023-02-15T18:32:39;122.00;;;43.57;;
42886;SDS011;29032;56.028;92.904;2023-02-15T18:37:42;117.67;;;43.83;;
42886;SDS011;29032;56.028;92.904;2023-02-15T18:42:46;85.70;;;31.23;;
42886;SDS011;29032;56.028;92.904;2023-02-15T18:47:49;71.90;;;26.07;;
42886;SDS011;29032;56.028;92.904;2023-02-15T18:52:51;65.57;;;23.23;;
42886;SDS011;29032;56.028;92.904;2023-02-15T18:57:55;59.47;;;21.73;;
42886;SDS011;29032;56.028;92.904;2023-02-15T19:02:58;82.40;;;29.93;;
42886;SDS011;29032;56.028;92.904;2023-02-15T19:08:01;118.80;;;40.77;;
42886;SDS011;29032;56.028;92.904;2023-02-15T19:13:07;122.60;;;43.00;;
42886;SDS011;29032;56.028;92.904;2023-02-15T19:18:10;132.03;;;43.20;;
42886;SDS011;29032;56.028;92.904;2023-02-15T19:23:13;120.37;;;40.13;;
42886;SDS011;29032;56.028;92.904;2023-02-15T19:28:20;122.57;;;41.67;;
42886;SDS011;29032;56.028;92.904;2023-02-15T19:33:29;121.40;;;42.17;;
42886;SDS011;29032;56.028;92.904;2023-02-15T19:38:32;123.67;;;41.93;;
42886;SDS011;29032;56.028;92.904;2023-02-15T19:43:36;104.63;;;41.87;;
42886;SDS011;29032;56.028;92.904;2023-02-15T19:48:38;108.40;;;38.73;;
42886;SDS011;29032;56.028;92.904;2023-02-15T19:53:40;100.20;;;37.10;;
42886;SDS011;29032;56.028;92.904;2023-02-15T19:58:44;104.93;;;37.43;;
42886;SDS011;29032;56.028;92.904;2023-02-15T20:03:46;95.47;;;35.17;;
42886;SDS011;29032;56.028;92.904;2023-02-15T20:08:48;101.17;;;35.37;;
42886;SDS011;29032;56.028;92.904;2023-02-15T20:13:53;73.00;;;27.20;;
42886;SDS011;29032;56.028;92.904;2023-02-15T20:18:55;59.13;;;22.00;;
42886;SDS011;29032;56.028;92.904;2023-02-15T20:23:58;61.83;;;19.90;;
42886;SDS011;29032;56.028;92.904;2023-02-15T20:29:03;67.13;;;21.17;;
42886;SDS011;29032;56.028;92.904;2023-02-15T20:34:05;52.67;;;18.33;;
42886;SDS011;29032;56.028;92.904;2023-02-15T20:39:11;52.80;;;18.17;;
42886;SDS011;29032;56.028;92.904;2023-02-15T20:44:23;43.70;;;15.53;;
42886;SDS011;29032;56.028;92.904;2023-02-15T20:49:26;53.33;;;17.20;;
42886;SDS011;29032;56.028;92.904;2023-02-15T20:54:29;44.90;;;16.23;;
42886;SDS011;29032;56.028;92.904;2023-02-15T21:04:40;46.83;;;15.47;;
42886;SDS011;29032;56.028;92.904;2023-02-15T21:09:43;45.60;;;15.37;;
42886;SDS011;29032;56.028;92.904;2023-02-15T21:14:47;72.90;;;25.00;;
42886;SDS011;29032;56.028;92.904;2023-02-15T21:19:49;93.50;;;34.53;;
42886;SDS011;29032;56.028;92.904;2023-02-15T21:24:51;101.70;;;37.63;;
42886;SDS011;29032;56.028;92.904;2023-02-15T21:29:55;104.60;;;35.77;;
42886;SDS011;29032;56.028;92.904;2023-02-15T21:34:57;113.50;;;39.77;;
42886;SDS011;29032;56.028;92.904;2023-02-15T21:39:59;105.47;;;38.83;;
42886;SDS011;29032;56.028;92.904;2023-02-15T21:45:11;99.70;;;34.83;;
42886;SDS011;29032;56.028;92.904;2023-02-15T21:50:15;88.00;;;31.13;;
42886;SDS011;29032;56.028;92.904;2023-02-15T21:55:18;79.37;;;26.90;;
42886;SDS011;29032;56.028;92.904;2023-02-15T22:00:22;89.17;;;30.67;;
42886;SDS011;29032;56.028;92.904;2023-02-15T22:05:27;67.87;;;25.73;;
42886;SDS011;29032;56.028;92.904;2023-02-15T22:10:31;79.93;;;25.53;;
42886;SDS011;29032;56.028;92.904;2023-02-15T22:15:35;75.27;;;26.17;;
42886;SDS011;29032;56.028;92.904;2023-02-15T22:20:38;78.47;;;26.70;;
42886;SDS011;29032;56.028;92.904;2023-02-15T22:25:40;66.27;;;24.53;;
42886;SDS011;29032;56.028;92.904;2023-02-15T22:30:44;78.43;;;28.30;;
42886;SDS011;29032;56.028;92.904;2023-02-15T22:35:46;82.27;;;25.77;;
42886;SDS011;29032;56.028;92.904;2023-02-15T22:40:48;71.83;;;26.57;;
42886;SDS011;29032;56.028;92.904;2023-02-15T22:45:54;65.27;;;24.00;;
42886;SDS011;29032;56.028;92.904;2023-02-15T22:51:01;71.50;;;25.27;;
42886;SDS011;29032;56.028;92.904;2023-02-15T22:56:04;71.17;;;24.67;;
42886;SDS011;29032;56.028;92.904;2023-02-15T23:01:11;60.57;;;22.30;;
42886;SDS011;29032;56.028;92.904;2023-02-15T23:06:23;61.10;;;22.30;;
42886;SDS011;29032;56.028;92.904;2023-02-15T23:11:25;60.70;;;22.43;;
42886;SDS011;29032;56.028;92.904;2023-02-15T23:16:29;64.70;;;23.80;;
42886;SDS011;29032;56.028;92.904;2023-02-15T23:21:32;67.43;;;20.63;;
42886;SDS011;29032;56.028;92.904;2023-02-15T23:26:34;68.43;;;24.70;;
42886;SDS011;29032;56.028;92.904;2023-02-15T23:31:38;78.03;;;26.70;;
42886;SDS011;29032;56.028;92.904;2023-02-15T23:36:43;62.25;;;25.25;;
42886;SDS011;29032;56.028;92.904;2023-02-15T23:41:45;63.50;;;24.50;;
42886;SDS011;29032;56.028;92.904;2023-02-15T23:46:49;61.93;;;24.03;;
42886;SDS011;29032;56.028;92.904;2023-02-15T23:51:52;61.33;;;22.87;;
42886;SDS011;29032;56.028;92.904;2023-02-15T23:56:56;63.67;;;24.83;;
